Burt, Illinois
Current Conditions -  °F | °C
As of 9:55 AM on Saturday 25 Oct 2014 (Local Time) from KAAA Reporting Station
Haze Haze  
Wind Chill: 65°   Ceiling: 600
Heat Index: 65°   Visibility: 4mi
Dew Point: 60°   Wind: 7mph
Humidity: 85%   Direction: 280°W
Pressure: 30.01"   Gusts: NA
Location:  40.3088°N, 89.3237°W
Report Text: KAAA 251455Z AUTO 28006KT 4SM HZ OVC006 18/16 A3001 RMK AO2 T01810155
Loading
Personal Weather Stations






























Interactive Weather Map
Tropical Storm Tracking
New forecast layout! Learn more

10-Day Weather Forecast

Advertisements
Track Severe Weather on mobile